createdAt,value
2023-02-04T00:02:07.342Z,11.80
2023-02-04T00:05:05.363Z,11.90
2023-02-04T00:07:51.842Z,12.00
2023-02-04T00:10:26.745Z,12.00
2023-02-04T00:13:02.352Z,12.10
2023-02-04T00:15:37.678Z,12.00
2023-02-04T00:18:13.427Z,12.00
2023-02-04T00:20:48.819Z,12.00
2023-02-04T00:23:26.574Z,11.90
2023-02-04T00:26:02.378Z,12.00
2023-02-04T00:28:37.920Z,12.00
2023-02-04T00:31:30.726Z,12.00
2023-02-04T00:34:11.095Z,11.90
2023-02-04T00:36:52.961Z,12.00
2023-02-04T00:39:30.376Z,12.10
2023-02-04T00:42:11.950Z,12.00
2023-02-04T00:45:12.748Z,12.10
2023-02-04T00:47:47.801Z,12.10
2023-02-04T00:50:24.114Z,12.20
2023-02-04T00:53:03.123Z,12.20
2023-02-04T00:55:41.488Z,12.30
2023-02-04T00:58:21.111Z,12.40
2023-02-04T01:01:01.035Z,12.40
2023-02-04T01:03:37.023Z,12.40
2023-02-04T01:06:14.420Z,12.50
2023-02-04T01:08:51.080Z,12.60
2023-02-04T01:11:30.586Z,12.70
2023-02-04T01:14:07.321Z,12.70
2023-02-04T01:16:47.145Z,12.80
2023-02-04T01:19:23.283Z,12.90
2023-02-04T01:21:58.828Z,13.00
2023-02-04T01:24:34.113Z,13.20
2023-02-04T01:27:45.068Z,13.40
2023-02-04T01:30:37.021Z,13.70
2023-02-04T01:33:13.586Z,13.80
2023-02-04T01:35:50.833Z,13.90
2023-02-04T01:38:30.788Z,14.00
2023-02-04T01:41:07.133Z,14.10
2023-02-04T01:43:58.127Z,14.50
2023-02-04T01:47:25.245Z,14.70
2023-02-04T01:50:07.919Z,15.30
2023-02-04T01:52:47.923Z,15.60
2023-02-04T01:55:31.080Z,15.90
2023-02-04T01:58:26.500Z,16.30
2023-02-04T02:01:29.361Z,16.60
2023-02-04T02:04:05.667Z,16.50
2023-02-04T02:06:43.850Z,16.70
2023-02-04T02:09:20.259Z,16.70
2023-02-04T02:11:57.954Z,16.80
2023-02-04T02:14:35.240Z,16.90
2023-02-04T02:17:35.308Z,17.10
2023-02-04T02:20:16.793Z,16.90
2023-02-04T02:23:01.457Z,17.30
2023-02-04T02:26:02.078Z,17.40
2023-02-04T02:28:49.149Z,17.50
2023-02-04T02:31:26.746Z,17.60
2023-02-04T02:34:08.576Z,17.80
2023-02-04T02:36:45.568Z,17.90
2023-02-04T02:39:40.870Z,18.00
2023-02-04T02:42:42.223Z,18.10
2023-02-04T02:45:27.336Z,18.30
2023-02-04T02:48:35.732Z,18.30
2023-02-04T02:51:24.971Z,18.30
2023-02-04T02:54:02.897Z,18.40
2023-02-04T02:56:42.268Z,18.70
2023-02-04T02:59:25.002Z,18.70
2023-02-04T03:02:16.501Z,19.20
2023-02-04T03:04:57.038Z,19.50
2023-02-04T03:07:38.376Z,19.20
2023-02-04T03:10:14.563Z,19.20
2023-02-04T03:12:50.969Z,19.10
2023-02-04T03:15:35.080Z,19.60
2023-02-04T03:18:14.145Z,19.60
2023-02-04T03:20:53.387Z,19.30
2023-02-04T03:23:32.616Z,19.30
2023-02-04T03:26:10.899Z,19.40
2023-02-04T03:28:53.472Z,19.30
2023-02-04T03:31:32.889Z,19.40
2023-02-04T03:34:10.552Z,19.40
2023-02-04T03:36:51.795Z,19.20
2023-02-04T03:39:27.786Z,19.10
2023-02-04T03:42:05.164Z,19.60
2023-02-04T03:44:41.014Z,19.70
2023-02-04T03:47:23.015Z,19.50
2023-02-04T03:50:00.979Z,19.30
2023-02-04T03:52:46.544Z,19.30
2023-02-04T03:55:26.506Z,19.40
2023-02-04T03:58:06.995Z,19.10
2023-02-04T04:00:44.688Z,19.40
2023-02-04T04:03:26.395Z,19.20
2023-02-04T04:06:10.105Z,19.10
2023-02-04T04:08:49.631Z,19.50
2023-02-04T04:11:34.286Z,19.70
2023-02-04T04:14:11.081Z,19.80
2023-02-04T04:16:48.985Z,19.70
2023-02-04T04:19:50.177Z,19.00
2023-02-04T04:22:30.847Z,19.10
2023-02-04T04:25:10.779Z,19.40
2023-02-04T04:27:54.918Z,19.30
2023-02-04T04:30:33.021Z,18.90
2023-02-04T04:33:09.542Z,19.00
2023-02-04T04:35:47.878Z,19.10
2023-02-04T04:38:24.323Z,18.60
2023-02-04T04:41:03.240Z,18.40
2023-02-04T04:43:39.259Z,18.30
2023-02-04T04:46:17.637Z,18.10
2023-02-04T04:48:56.661Z,18.00
2023-02-04T04:51:38.644Z,18.20
2023-02-04T04:54:19.088Z,18.30
2023-02-04T04:57:03.378Z,18.40
2023-02-04T04:59:44.002Z,18.50
2023-02-04T05:02:20.116Z,18.10
2023-02-04T05:05:03.414Z,18.40
2023-02-04T05:08:00.205Z,18.40
2023-02-04T05:10:41.830Z,18.50
2023-02-04T05:13:19.322Z,18.40
2023-02-04T05:18:56.795Z,18.30
2023-02-04T05:21:39.727Z,18.40
2023-02-04T05:24:23.273Z,18.10
2023-02-04T05:27:12.644Z,18.00
2023-02-04T05:30:01.630Z,17.90
2023-02-04T05:32:55.322Z,18.10
2023-02-04T05:35:42.445Z,18.20
2023-02-04T05:38:20.212Z,18.30
2023-02-04T05:41:10.903Z,18.60
2023-02-04T05:43:53.034Z,18.40
2023-02-04T05:46:30.861Z,18.20
2023-02-04T05:49:10.357Z,18.20
2023-02-04T05:51:48.141Z,18.20
2023-02-04T05:54:25.780Z,18.30
2023-02-04T05:57:25.901Z,18.60
2023-02-04T06:00:09.181Z,18.30
2023-02-04T06:02:48.412Z,18.20
2023-02-04T06:05:25.848Z,18.50
2023-02-04T06:08:02.450Z,18.70
2023-02-04T06:10:39.570Z,18.40
2023-02-04T06:13:18.389Z,18.40
2023-02-04T06:15:55.017Z,18.40
2023-02-04T06:18:33.336Z,18.50
2023-02-04T06:21:18.889Z,18.50
2023-02-04T06:24:01.321Z,18.60
2023-02-04T06:26:38.036Z,18.60
2023-02-04T06:29:21.569Z,18.40
2023-02-04T06:31:59.856Z,18.40
2023-02-04T06:34:36.818Z,18.60
2023-02-04T06:37:18.468Z,18.50
2023-02-04T06:39:56.417Z,18.60
2023-02-04T06:42:34.960Z,18.30
2023-02-04T06:45:14.932Z,18.30
2023-02-04T06:48:00.245Z,18.30
2023-02-04T06:50:38.076Z,18.40
2023-02-04T06:53:14.095Z,18.00
2023-02-04T06:55:51.566Z,18.20
2023-02-04T06:58:27.838Z,18.30
2023-02-04T07:01:14.632Z,18.30
2023-02-04T07:03:54.734Z,18.20
2023-02-04T07:10:33.782Z,18.30
2023-02-04T07:13:12.058Z,18.50
2023-02-04T07:15:55.098Z,18.40
2023-02-04T07:18:35.222Z,18.50
2023-02-04T07:21:16.314Z,18.50
2023-02-04T07:23:54.324Z,18.40
2023-02-04T07:26:37.220Z,18.30
2023-02-04T07:29:24.800Z,18.40
2023-02-04T07:32:08.738Z,18.10
2023-02-04T07:34:52.794Z,18.40
2023-02-04T07:37:37.813Z,18.30
2023-02-04T07:40:17.700Z,18.20
2023-02-04T07:42:54.184Z,18.40
2023-02-04T07:45:36.770Z,18.30
2023-02-04T07:48:13.838Z,18.30
2023-02-04T07:51:00.396Z,18.20
2023-02-04T07:53:44.784Z,18.40
2023-02-04T07:56:27.874Z,18.40
2023-02-04T07:59:06.197Z,18.10
2023-02-04T08:01:55.684Z,18.20
2023-02-04T08:04:32.126Z,17.90
2023-02-04T08:07:14.702Z,17.90
2023-02-04T08:09:59.617Z,18.00
2023-02-04T08:12:39.173Z,17.90
2023-02-04T08:15:18.295Z,17.90
2023-02-04T08:17:55.324Z,17.80
2023-02-04T08:20:36.107Z,17.80
2023-02-04T08:23:26.249Z,17.80
2023-02-04T08:26:09.821Z,17.80
2023-02-04T08:28:49.414Z,17.80
2023-02-04T08:31:27.046Z,17.90
2023-02-04T08:34:04.358Z,18.00
2023-02-04T08:36:41.771Z,18.00
2023-02-04T08:39:27.783Z,18.00
2023-02-04T08:42:07.213Z,17.90
2023-02-04T08:44:43.964Z,17.90
2023-02-04T08:47:23.643Z,18.00
2023-02-04T08:50:03.570Z,17.90
2023-02-04T08:52:46.386Z,18.00
2023-02-04T08:55:40.977Z,17.90
2023-02-04T08:58:20.777Z,17.80
2023-02-04T09:00:57.655Z,17.80
2023-02-04T09:03:36.080Z,17.80
2023-02-04T09:06:13.002Z,17.80
2023-02-04T09:08:54.716Z,17.80
2023-02-04T09:11:33.608Z,17.70
2023-02-04T09:14:09.678Z,17.80
2023-02-04T09:16:48.367Z,17.70
2023-02-04T09:19:27.850Z,17.70
2023-02-04T09:22:04.309Z,17.70
2023-02-04T09:24:43.823Z,17.50
2023-02-04T09:27:23.586Z,17.30
2023-02-04T09:30:01.797Z,17.30
2023-02-04T09:32:44.975Z,17.30
2023-02-04T09:35:22.306Z,17.30
2023-02-04T09:37:58.241Z,17.40
2023-02-04T09:40:38.810Z,17.40
2023-02-04T09:43:22.511Z,17.20
2023-02-04T09:46:03.155Z,17.20
2023-02-04T09:48:40.361Z,17.20
2023-02-04T09:51:21.927Z,17.20
2023-02-04T09:54:01.248Z,17.10
2023-02-04T09:56:38.363Z,17.10
2023-02-04T09:59:20.683Z,17.00
2023-02-04T10:02:05.899Z,17.00
2023-02-04T10:04:45.800Z,16.90
2023-02-04T10:07:34.217Z,16.80
2023-02-04T10:10:17.173Z,16.60
2023-02-04T10:13:02.481Z,16.50
2023-02-04T10:15:43.244Z,16.60
2023-02-04T10:18:23.660Z,16.60
2023-02-04T10:21:07.820Z,16.40
2023-02-04T10:23:46.673Z,16.40
2023-02-04T10:26:24.060Z,16.20
2023-02-04T10:29:10.466Z,16.20
2023-02-04T10:31:55.073Z,16.20
2023-02-04T10:34:39.867Z,16.20
2023-02-04T10:37:24.091Z,16.00
2023-02-04T10:40:03.496Z,16.00
2023-02-04T10:42:45.408Z,16.20
2023-02-04T10:45:31.072Z,16.10
2023-02-04T10:48:22.154Z,16.10
2023-02-04T10:51:01.822Z,15.90
2023-02-04T10:53:53.113Z,15.80
2023-02-04T10:56:29.261Z,15.80
2023-02-04T10:59:06.846Z,15.70
2023-02-04T11:01:43.223Z,15.70
2023-02-04T11:04:27.615Z,15.60
2023-02-04T11:07:15.665Z,15.50
2023-02-04T11:09:57.852Z,15.60
2023-02-04T11:12:49.755Z,15.50
2023-02-04T11:15:47.391Z,15.60
2023-02-04T11:18:36.093Z,15.70
2023-02-04T11:21:30.201Z,15.60
2023-02-04T11:24:27.485Z,15.60
2023-02-04T11:27:25.002Z,15.50
2023-02-04T11:30:12.516Z,15.50
2023-02-04T11:32:50.037Z,15.50
2023-02-04T11:35:36.106Z,15.50
2023-02-04T11:38:33.624Z,15.50
2023-02-04T11:41:13.720Z,15.50
2023-02-04T11:43:53.995Z,15.50
2023-02-04T11:46:34.234Z,15.40
2023-02-04T11:49:39.594Z,15.40
2023-02-04T11:52:23.165Z,15.50
2023-02-04T11:55:12.482Z,15.50
2023-02-04T11:57:51.414Z,15.50
2023-02-04T12:00:32.395Z,15.50
2023-02-04T12:03:25.074Z,15.50
2023-02-04T12:06:06.336Z,15.60
2023-02-04T12:08:43.305Z,15.50
2023-02-04T12:11:37.299Z,15.60
2023-02-04T12:14:25.452Z,15.60
2023-02-04T12:17:05.233Z,15.60
2023-02-04T12:19:46.133Z,15.60
2023-02-04T12:22:22.611Z,15.60
2023-02-04T12:24:58.860Z,15.60
2023-02-04T12:27:42.944Z,15.60
2023-02-04T12:30:21.436Z,15.50
2023-02-04T12:33:06.364Z,15.50
2023-02-04T12:35:46.027Z,15.50
2023-02-04T12:38:32.365Z,15.50
2023-02-04T12:41:18.274Z,15.50
2023-02-04T12:43:58.359Z,15.50
2023-02-04T12:46:36.834Z,15.50
2023-02-04T12:49:20.570Z,15.40
2023-02-04T12:52:07.332Z,15.40
2023-02-04T12:54:45.244Z,15.40
2023-02-04T12:57:22.665Z,15.30
2023-02-04T13:00:04.133Z,15.40
2023-02-04T13:02:53.816Z,15.30
2023-02-04T13:05:32.340Z,15.30
2023-02-04T13:08:16.896Z,15.30
2023-02-04T13:10:57.265Z,15.30
2023-02-04T13:13:36.083Z,15.40
2023-02-04T13:16:35.277Z,15.20
2023-02-04T13:19:12.021Z,15.30
2023-02-04T13:21:53.413Z,15.30
2023-02-04T13:24:30.399Z,15.20
2023-02-04T13:27:22.949Z,15.20
2023-02-04T13:30:04.713Z,15.20
2023-02-04T13:32:54.354Z,15.20
2023-02-04T13:35:31.522Z,15.10
2023-02-04T13:38:21.442Z,15.10
2023-02-04T13:40:58.675Z,15.10
2023-02-04T13:43:42.700Z,15.10
2023-02-04T13:46:21.527Z,15.00
2023-02-04T13:49:07.783Z,14.90
2023-02-04T13:51:54.662Z,14.90
2023-02-04T13:54:46.073Z,14.90
2023-02-04T13:57:25.320Z,14.90
2023-02-04T14:00:12.459Z,14.90
2023-02-04T14:02:52.288Z,14.90
2023-02-04T14:05:31.466Z,14.80
2023-02-04T14:08:18.057Z,14.90
2023-02-04T14:11:04.362Z,14.90
2023-02-04T14:13:48.722Z,14.80
2023-02-04T14:16:30.833Z,14.80
2023-02-04T14:19:07.888Z,14.80
2023-02-04T14:21:52.079Z,14.80
2023-02-04T14:24:31.406Z,14.80
2023-02-04T14:27:12.377Z,14.70
2023-02-04T14:29:51.306Z,14.70
2023-02-04T14:32:30.781Z,14.70
2023-02-04T14:35:11.631Z,14.70
2023-02-04T14:37:56.526Z,14.70
2023-02-04T14:40:35.466Z,14.60
2023-02-04T14:43:17.868Z,14.70
2023-02-04T14:45:58.333Z,14.70
2023-02-04T14:48:41.737Z,14.60
2023-02-04T14:51:21.377Z,14.70
2023-02-04T14:54:14.442Z,14.70
2023-02-04T14:56:57.908Z,14.70
2023-02-04T14:59:34.416Z,14.70
2023-02-04T15:02:20.409Z,14.70
2023-02-04T15:05:03.171Z,14.70
2023-02-04T15:07:41.841Z,14.70
2023-02-04T15:10:26.169Z,14.60
2023-02-04T15:13:07.694Z,14.60
2023-02-04T15:15:46.507Z,14.50
2023-02-04T15:18:23.388Z,14.60
2023-02-04T15:21:01.960Z,14.60
2023-02-04T15:23:41.534Z,14.60
2023-02-04T15:26:23.254Z,14.60
2023-02-04T15:29:05.125Z,14.50
2023-02-04T15:31:44.731Z,14.50
2023-02-04T15:34:25.247Z,14.50
2023-02-04T15:37:07.807Z,14.50
2023-02-04T15:39:49.392Z,14.50
2023-02-04T15:42:49.297Z,14.50
2023-02-04T15:45:34.015Z,14.50
2023-02-04T15:48:15.422Z,14.50
2023-02-04T15:50:57.590Z,14.50
2023-02-04T15:53:40.872Z,14.50
2023-02-04T15:56:24.922Z,14.50
2023-02-04T15:59:08.696Z,14.50
2023-02-04T16:01:49.164Z,14.50
2023-02-04T16:04:25.369Z,14.50
2023-02-04T16:07:10.388Z,14.50
2023-02-04T16:09:50.046Z,14.50
2023-02-04T16:12:29.358Z,14.50
2023-02-04T16:15:10.944Z,14.50
2023-02-04T16:17:58.534Z,14.50
2023-02-04T16:20:36.498Z,14.40
2023-02-04T16:23:19.058Z,14.30
2023-02-04T16:25:56.919Z,14.30
2023-02-04T16:28:36.680Z,14.30
2023-02-04T16:31:17.634Z,14.40
2023-02-04T16:33:59.135Z,14.30
2023-02-04T16:36:48.768Z,14.40
2023-02-04T16:39:29.855Z,14.30
2023-02-04T16:42:10.857Z,14.20
2023-02-04T16:44:52.327Z,14.10
2023-02-04T16:47:43.717Z,14.10
2023-02-04T16:50:23.846Z,14.10
2023-02-04T16:53:03.367Z,14.00
2023-02-04T16:55:49.735Z,14.10
2023-02-04T16:58:29.862Z,14.10
2023-02-04T17:01:11.636Z,14.10
2023-02-04T17:03:50.472Z,14.10
2023-02-04T17:06:36.826Z,14.00
2023-02-04T17:09:13.842Z,14.00
2023-02-04T17:11:52.152Z,14.00
2023-02-04T17:14:28.880Z,14.00
2023-02-04T17:17:05.528Z,13.90
2023-02-04T17:19:46.590Z,13.90
2023-02-04T17:22:24.110Z,14.00
2023-02-04T17:25:02.405Z,14.00
2023-02-04T17:27:39.088Z,14.10
2023-02-04T17:30:20.318Z,14.00
2023-02-04T17:33:08.091Z,14.00
2023-02-04T17:35:49.404Z,14.00
2023-02-04T17:38:34.563Z,14.00
2023-02-04T17:41:13.346Z,14.00
2023-02-04T17:43:50.774Z,13.90
2023-02-04T17:46:31.379Z,13.90
2023-02-04T17:49:08.559Z,13.90
2023-02-04T17:51:47.579Z,13.80
2023-02-04T17:54:24.067Z,13.70
2023-02-04T17:57:03.166Z,13.70
2023-02-04T17:59:40.577Z,13.70
2023-02-04T18:02:35.362Z,13.80
2023-02-04T18:05:18.598Z,13.80
2023-02-04T18:08:08.288Z,13.60
2023-02-04T18:10:47.115Z,13.60
2023-02-04T18:13:25.893Z,13.70
2023-02-04T18:16:05.581Z,13.70
2023-02-04T18:18:45.855Z,13.70
2023-02-04T18:21:25.216Z,13.80
2023-02-04T18:24:21.930Z,13.80
2023-02-04T18:27:01.264Z,13.80
2023-02-04T18:29:40.664Z,13.80
2023-02-04T18:32:25.101Z,13.80
2023-02-04T18:35:04.929Z,13.70
2023-02-04T18:37:47.397Z,13.70
2023-02-04T18:40:32.524Z,13.70
2023-02-04T18:43:23.795Z,13.70
2023-02-04T18:46:01.931Z,13.70
2023-02-04T18:49:16.157Z,13.70
2023-02-04T18:51:55.062Z,13.70
2023-02-04T18:54:51.339Z,13.60
2023-02-04T18:57:42.263Z,13.60
2023-02-04T19:00:36.446Z,13.70
2023-02-04T19:03:29.404Z,13.60
2023-02-04T19:06:06.821Z,13.60
2023-02-04T19:08:49.756Z,13.40
2023-02-04T19:11:39.494Z,13.40
2023-02-04T19:14:26.976Z,13.50
2023-02-04T19:17:13.102Z,13.40
2023-02-04T19:19:53.861Z,13.40
2023-02-04T19:22:47.850Z,13.20
2023-02-04T19:25:34.267Z,13.10
2023-02-04T19:28:31.976Z,13.10
2023-02-04T19:31:15.701Z,13.10
2023-02-04T19:33:55.621Z,13.20
2023-02-04T19:36:38.414Z,13.10
2023-02-04T19:39:34.508Z,13.10
2023-02-04T19:42:34.106Z,12.90
2023-02-04T19:45:23.995Z,13.10
2023-02-04T19:48:02.642Z,13.10
2023-02-04T19:50:39.655Z,13.00
2023-02-04T19:53:23.000Z,13.10
2023-02-04T19:55:58.705Z,13.00
2023-02-04T19:58:46.472Z,13.00
2023-02-04T20:01:24.730Z,12.80
2023-02-04T20:04:04.649Z,12.80
2023-02-04T20:06:43.085Z,12.70
2023-02-04T20:09:22.055Z,12.80
2023-02-04T20:12:08.268Z,12.80
2023-02-04T20:14:53.927Z,12.80
2023-02-04T20:17:48.429Z,12.80
2023-02-04T20:20:29.509Z,12.60
2023-02-04T20:23:05.763Z,12.50
2023-02-04T20:25:44.400Z,12.60
2023-02-04T20:28:25.759Z,12.60
2023-02-04T20:31:02.849Z,12.80
2023-02-04T20:33:49.763Z,12.80
2023-02-04T20:36:42.450Z,12.70
2023-02-04T20:39:39.778Z,12.60
2023-02-04T20:42:37.649Z,12.60
2023-02-04T20:45:30.609Z,12.60
2023-02-04T20:48:28.788Z,12.60
2023-02-04T20:51:06.201Z,12.60
2023-02-04T20:53:49.247Z,12.50
2023-02-04T20:56:30.139Z,12.60
2023-02-04T20:59:28.173Z,12.40
2023-02-04T21:02:03.487Z,12.40
2023-02-04T21:04:44.937Z,12.40
2023-02-04T21:07:23.295Z,12.40
2023-02-04T21:10:01.670Z,12.30
2023-02-04T21:12:37.353Z,12.20
2023-02-04T21:15:12.905Z,12.20
2023-02-04T21:17:47.629Z,12.20
2023-02-04T21:20:22.714Z,12.00
2023-02-04T21:22:58.150Z,11.80
2023-02-04T21:25:35.739Z,11.90
2023-02-04T21:28:11.275Z,11.90
2023-02-04T21:30:47.062Z,11.90
2023-02-04T21:33:22.968Z,12.10
2023-02-04T21:35:57.558Z,11.90
2023-02-04T21:38:32.773Z,11.90
2023-02-04T21:41:09.813Z,11.70
2023-02-04T21:43:45.721Z,11.80
2023-02-04T21:46:21.849Z,11.90
2023-02-04T21:48:57.537Z,11.80
2023-02-04T21:51:32.489Z,11.80
2023-02-04T21:54:07.865Z,11.70
2023-02-04T21:56:45.453Z,11.70
2023-02-04T21:59:21.883Z,11.80
2023-02-04T22:01:56.833Z,11.90
2023-02-04T22:04:32.018Z,11.90
2023-02-04T22:07:07.069Z,11.80
2023-02-04T22:09:42.024Z,11.80
2023-02-04T22:12:19.639Z,11.80
2023-02-04T22:15:10.321Z,11.70
2023-02-04T22:17:45.000Z,11.80
2023-02-04T22:20:20.169Z,11.60
2023-02-04T22:22:55.936Z,11.70
2023-02-04T22:25:32.077Z,11.80
2023-02-04T22:28:10.535Z,11.80
2023-02-04T22:30:54.136Z,11.70
2023-02-04T22:33:29.932Z,11.60
2023-02-04T22:36:05.553Z,11.70
2023-02-04T22:38:40.754Z,11.60
2023-02-04T22:41:16.416Z,11.50
2023-02-04T22:43:54.736Z,11.50
2023-02-04T22:46:31.271Z,11.60
2023-02-04T22:49:07.669Z,11.60
2023-02-04T22:51:42.656Z,11.70
2023-02-04T22:54:17.958Z,11.80
2023-02-04T22:56:53.610Z,11.90
2023-02-04T22:59:31.924Z,11.80
2023-02-04T23:02:07.689Z,11.90
2023-02-04T23:04:44.147Z,11.70
2023-02-04T23:07:19.479Z,11.70
2023-02-04T23:09:54.810Z,11.60
2023-02-04T23:12:34.559Z,11.60
2023-02-04T23:15:12.792Z,11.60
2023-02-04T23:17:48.416Z,11.60
2023-02-04T23:20:23.885Z,11.70
2023-02-04T23:23:00.400Z,11.60
2023-02-04T23:25:35.689Z,11.60
2023-02-04T23:28:11.732Z,11.50
2023-02-04T23:30:50.202Z,11.60
2023-02-04T23:33:26.607Z,11.60
2023-02-04T23:36:02.382Z,11.50
2023-02-04T23:38:37.986Z,11.40
2023-02-04T23:41:15.040Z,11.30
2023-02-04T23:43:50.807Z,11.40
2023-02-04T23:46:28.742Z,11.30
2023-02-04T23:49:04.788Z,11.30
2023-02-04T23:51:40.089Z,11.30
2023-02-04T23:54:15.551Z,11.40
2023-02-04T23:56:51.025Z,11.30
2023-02-04T23:59:27.328Z,11.20
